CST,Max TemperatureF,Mean TemperatureF,Min TemperatureF,Max Dew PointF,MeanDew PointF,Min DewpointF,Max Humidity, Mean Humidity, Min Humidity, Max Sea Level PressureIn, Mean Sea Level PressureIn, Min Sea Level PressureIn, Max VisibilityMiles, Mean VisibilityMiles, Min VisibilityMiles, Max Wind SpeedMPH, Mean Wind SpeedMPH, Max Gust SpeedMPH,PrecipitationIn, CloudCover, Events, WindDirDegrees
2012-12-1,34,26,17,34,27,14,100,96,86,29.94,29.81,29.71,15,5,2,25,17,29,0.02,8,Rain-Snow,247
2012-12-2,35,24,16,34,24,14,100,95,82,29.96,29.77,29.45,15,6,0,20,10,29,0.00,8,Fog-Snow,139
2012-12-3,36,22,8,36,25,5,100,92,79,29.87,29.51,29.33,15,7,1,31,18,34,0.08,8,Rain-Snow,277
2012-12-4,10,6,1,7,4,0,100,86,75,30.45,30.25,29.91,15,13,1,28,19,33,0.00,2,Snow,289
2012-12-5,32,16,0,25,15,1,92,76,57,30.43,29.97,29.52,15,14,9,34,19,46,0.02,6,Rain-Snow,173
2012-12-6,20,18,15,28,16,10,93,81,72,30.03,29.83,29.51,15,13,5,26,16,34,0.00,7,Snow,296
2012-12-7,10,2,-5,12,2,-8,100,83,69,30.22,30.17,30.05,15,13,6,12,8,,0.00,4,Snow,337
2012-12-8,6,0,-11,3,-3,-27,100,88,45,30.36,30.20,30.15,15,10,1,20,8,21,0.08,4,Snow,40
2012-12-9,-5,-10,-16,-9,-17,-22,78,69,53,30.54,30.44,30.25,15,13,1,13,8,,0.00,1,,338
2012-12-10,10,-2,-13,9,-5,-18,92,77,55,30.22,29.92,29.75,15,11,2,26,14,34,0.02,5,Snow,184
2012-12-11,0,-7,-14,4,-12,-22,92,70,55,30.04,29.93,29.78,15,14,9,20,13,,0.00,4,Snow,336
2012-12-12,3,-7,-17,-2,-7,-15,78,73,52,30.11,30.00,29.94,15,6,1,16,12,18,0.08,8,Snow,60
2012-12-13,10,5,0,7,-2,-6,85,76,59,30.21,30.17,30.12,15,11,1,12,7,,0.00,8,Snow,182
2012-12-14,24,14,4,23,17,7,100,93,76,30.11,29.95,29.81,15,4,0,22,13,29,0.08,7,Fog-Snow,175
2012-12-15,21,16,10,19,16,10,100,95,91,29.82,29.78,29.75,10,3,0,12,8,,0.00,8,Fog-Snow,292
2012-12-16,21,17,13,21,18,14,100,95,89,29.92,29.88,29.83,15,11,2,12,9,,0.00,8,Snow,343
2012-12-17,14,12,11,14,12,10,100,94,86,29.89,29.81,29.73,15,7,1,10,5,,0.00,8,Snow,147
2012-12-18,16,12,8,13,11,7,100,89,79,29.80,29.76,29.73,15,11,2,10,8,,0.02,8,Snow,96
2012-12-19,14,10,3,12,11,1,93,90,77,30.16,29.95,29.81,15,11,3,15,10,18,0.02,7,Snow,17
2012-12-20,12,6,-1,9,7,1,100,89,79,30.29,30.23,30.16,15,10,5,9,5,,0.00,8,Snow,309
2012-12-21,10,6,3,7,5,3,92,88,76,30.32,30.24,30.07,15,13,2,20,8,,0.02,6,Snow,188
2012-12-22,10,2,-9,7,1,-11,92,87,75,30.35,30.23,30.08,15,12,2,20,12,,0.00,5,Snow,325
2012-12-23,-1,-7,-13,-8,-12,-22,78,72,45,30.38,30.36,30.33,15,13,6,13,9,,0.00,7,Snow,342
2012-12-24,-9,-14,-20,-17,-21,-26,77,67,53,30.49,30.41,30.34,15,14,9,14,9,,0.00,4,,302
2012-12-25,-5,-11,-17,-13,-18,-22,77,68,54,30.58,30.52,30.49,15,11,1,12,8,,0.00,4,,254
2012-12-26,-2,-8,-15,-13,-17,-20,77,66,48,30.48,30.43,30.40,15,14,9,8,5,,0.00,3,,200
2012-12-27,11,1,-9,9,1,-13,92,79,65,30.39,30.31,30.22,15,12,4,9,5,,0.02,8,Snow,134
2012-12-28,12,9,6,9,8,7,92,88,82,30.20,30.10,30.03,15,8,3,12,9,,0.00,7,Snow,201
2012-12-29,7,2,-4,9,0,-9,92,81,64,30.13,30.08,30.04,15,14,7,14,8,,0.02,6,Snow,277
2012-12-30,14,4,-9,12,2,-17,93,79,42,30.20,30.02,29.95,15,12,2,23,14,,0.02,6,Snow,293
2012-12-31,-2,-10,-18,-9,-17,-24,78,72,58,30.36,30.31,30.22,15,14,9,13,9,,0.00,0,,258